createdAt,value
2023-04-06T00:00:24.913Z,26.73
2023-04-06T00:01:21.611Z,24.33
2023-04-06T00:02:18.333Z,23.90
2023-04-06T00:03:15.600Z,24.35
2023-04-06T00:04:12.420Z,28.58
2023-04-06T00:05:09.484Z,26.23
2023-04-06T00:06:06.551Z,23.77
2023-04-06T00:07:03.166Z,24.50
2023-04-06T00:07:59.856Z,26.48
2023-04-06T00:08:57.105Z,24.42
2023-04-06T00:09:53.690Z,23.60
2023-04-06T00:10:50.419Z,24.83
2023-04-06T00:11:47.061Z,26.55
2023-04-06T00:12:44.256Z,24.08
2023-04-06T00:13:40.929Z,25.67
2023-04-06T00:14:37.533Z,25.10
2023-04-06T00:15:34.837Z,25.70
2023-04-06T00:16:31.500Z,28.45
2023-04-06T00:17:29.079Z,26.17
2023-04-06T00:18:25.793Z,21.83
2023-04-06T00:19:22.483Z,22.17
2023-04-06T00:20:19.823Z,23.20
2023-04-06T00:21:16.563Z,24.48
2023-04-06T00:22:13.256Z,25.23
2023-04-06T00:23:09.872Z,23.95
2023-04-06T00:24:06.745Z,23.48
2023-04-06T00:25:03.544Z,26.20
2023-04-06T00:26:00.427Z,26.92
2023-04-06T00:26:57.160Z,26.30
2023-04-06T00:27:53.795Z,23.13
2023-04-06T00:28:51.682Z,27.08
2023-04-06T00:29:48.310Z,25.60
2023-04-06T00:30:44.961Z,23.63
2023-04-06T00:31:41.696Z,25.80
2023-04-06T00:32:38.538Z,23.90
2023-04-06T00:33:35.152Z,23.42
2023-04-06T00:34:31.849Z,23.02
2023-04-06T00:35:28.433Z,23.77
2023-04-06T00:36:25.096Z,23.40
2023-04-06T00:37:21.722Z,24.25
2023-04-06T00:38:18.872Z,20.10
2023-04-06T00:39:15.473Z,26.05
2023-04-06T00:40:12.147Z,23.85
2023-04-06T00:41:08.851Z,26.00
2023-04-06T00:42:13.534Z,24.98
2023-04-06T00:43:10.438Z,23.10
2023-04-06T00:44:07.182Z,23.95
2023-04-06T00:45:04.212Z,29.33
2023-04-06T00:46:00.972Z,23.42
2023-04-06T00:46:57.702Z,22.98
2023-04-06T00:47:54.464Z,23.30
2023-04-06T00:48:51.371Z,25.52
2023-04-06T00:49:48.266Z,25.38
2023-04-06T00:50:44.996Z,21.63
2023-04-06T00:51:41.634Z,23.88
2023-04-06T00:52:38.542Z,25.45
2023-04-06T00:53:35.288Z,25.17
2023-04-06T00:54:31.946Z,25.73
2023-04-06T00:55:29.629Z,21.23
2023-04-06T00:56:27.277Z,28.00
2023-04-06T00:57:24.014Z,24.02
2023-04-06T00:58:20.672Z,23.05
2023-04-06T00:59:17.529Z,27.20
2023-04-06T01:00:14.956Z,22.27
2023-04-06T01:01:11.830Z,22.45
2023-04-06T01:02:09.369Z,22.73
2023-04-06T01:03:07.882Z,23.92
2023-04-06T01:04:04.786Z,23.42
2023-04-06T01:05:01.502Z,23.25
2023-04-06T01:05:59.373Z,22.70
2023-04-06T01:06:56.205Z,23.42
2023-04-06T01:07:52.880Z,25.75
2023-04-06T01:08:49.598Z,25.90
2023-04-06T01:09:46.266Z,23.48
2023-04-06T01:10:42.880Z,23.88
2023-04-06T01:11:39.556Z,26.05
2023-04-06T01:12:37.348Z,26.25
2023-04-06T01:13:34.059Z,23.10
2023-04-06T01:14:30.964Z,30.13
2023-04-06T01:15:28.338Z,25.77
2023-04-06T01:16:25.482Z,23.73
2023-04-06T01:17:22.849Z,25.20
2023-04-06T01:18:19.490Z,24.92
2023-04-06T01:19:16.195Z,24.20
2023-04-06T01:20:12.867Z,26.23
2023-04-06T01:21:11.276Z,26.85
2023-04-06T01:22:08.306Z,25.00
2023-04-06T01:23:04.937Z,25.25
2023-04-06T01:24:01.562Z,26.98
2023-04-06T01:24:58.294Z,24.77
2023-04-06T01:25:54.927Z,24.48
2023-04-06T01:26:51.571Z,25.15
2023-04-06T01:27:48.247Z,22.40
2023-04-06T01:28:45.714Z,28.90
2023-04-06T01:29:42.576Z,26.98
2023-04-06T01:30:39.217Z,23.58
2023-04-06T01:31:36.387Z,24.52
2023-04-06T01:32:33.029Z,27.75
2023-04-06T01:33:29.683Z,24.40
2023-04-06T01:34:26.380Z,24.05
2023-04-06T01:35:23.476Z,24.38
2023-04-06T01:36:20.746Z,21.38
2023-04-06T01:37:17.469Z,24.35
2023-04-06T01:38:14.146Z,27.17
2023-04-06T01:39:10.935Z,24.75
2023-04-06T01:40:08.292Z,25.00
2023-04-06T01:41:04.956Z,26.95
2023-04-06T01:42:01.575Z,25.10
2023-04-06T01:42:58.198Z,25.70
2023-04-06T01:43:55.683Z,25.83
2023-04-06T01:44:52.393Z,28.92
2023-04-06T01:45:48.983Z,27.15
2023-04-06T01:46:46.505Z,27.55
2023-04-06T01:47:43.222Z,29.98
2023-04-06T01:48:39.876Z,28.77
2023-04-06T01:49:36.820Z,33.03
2023-04-06T01:50:33.457Z,26.85
2023-04-06T01:51:30.115Z,35.35
2023-04-06T01:52:26.733Z,27.60
2023-04-06T01:53:23.434Z,30.48
2023-04-06T01:54:20.034Z,27.10
2023-04-06T01:55:16.945Z,26.25
2023-04-06T01:56:13.614Z,26.10
2023-04-06T01:57:11.869Z,32.38
2023-04-06T01:58:08.494Z,26.40
2023-04-06T01:59:05.358Z,32.67
2023-04-06T02:00:02.104Z,30.85
2023-04-06T02:00:58.756Z,30.05
2023-04-06T02:01:55.443Z,28.23
2023-04-06T02:02:52.255Z,29.55
2023-04-06T02:03:49.057Z,30.20
2023-04-06T02:04:45.902Z,30.00
2023-04-06T02:05:42.591Z,29.70
2023-04-06T02:06:39.232Z,27.25
2023-04-06T02:07:35.923Z,26.75
2023-04-06T02:08:32.554Z,25.20
2023-04-06T02:09:30.633Z,29.40
2023-04-06T02:10:27.400Z,31.35
2023-04-06T02:11:24.028Z,28.15
2023-04-06T02:12:20.873Z,30.50
2023-04-06T02:13:17.597Z,29.05
2023-04-06T02:14:14.196Z,31.33
2023-04-06T02:15:11.245Z,29.35
2023-04-06T02:16:08.029Z,27.48
2023-04-06T02:17:04.741Z,32.05
2023-04-06T02:18:01.811Z,29.65
2023-04-06T02:18:58.490Z,29.88
2023-04-06T02:19:55.059Z,31.98
2023-04-06T02:20:52.047Z,31.80
2023-04-06T02:21:48.597Z,34.65
2023-04-06T02:22:45.644Z,29.20
2023-04-06T02:23:42.258Z,32.28
2023-04-06T02:24:38.888Z,32.95
2023-04-06T02:25:35.894Z,29.55
2023-04-06T02:26:33.684Z,31.90
2023-04-06T02:27:30.284Z,32.72
2023-04-06T02:28:26.915Z,34.97
2023-04-06T02:29:23.526Z,33.10
2023-04-06T02:30:20.393Z,37.03
2023-04-06T02:31:17.167Z,33.28
2023-04-06T02:32:13.742Z,31.92
2023-04-06T02:33:10.391Z,33.88
2023-04-06T02:34:08.203Z,33.90
2023-04-06T02:35:05.140Z,33.00
2023-04-06T02:36:01.841Z,32.08
2023-04-06T02:36:58.534Z,33.80
2023-04-06T02:37:55.383Z,31.70
2023-04-06T02:38:52.814Z,33.85
2023-04-06T02:39:49.406Z,31.08
2023-04-06T02:40:46.099Z,31.25
2023-04-06T02:41:42.697Z,31.23
2023-04-06T02:42:39.360Z,35.78
2023-04-06T02:43:36.083Z,33.17
2023-04-06T02:44:32.712Z,31.80
2023-04-06T02:45:29.366Z,32.65
2023-04-06T02:46:26.613Z,34.55
2023-04-06T02:47:23.286Z,29.17
2023-04-06T02:48:19.958Z,35.60
2023-04-06T02:49:16.805Z,32.40
2023-04-06T02:50:13.493Z,31.88
2023-04-06T02:51:10.285Z,31.50
2023-04-06T02:52:06.914Z,33.47
2023-04-06T02:53:03.530Z,34.50
2023-04-06T02:54:00.508Z,37.15
2023-04-06T02:54:57.118Z,32.80
2023-04-06T02:55:53.673Z,30.60
2023-04-06T02:56:50.437Z,35.78
2023-04-06T02:57:47.067Z,33.63
2023-04-06T02:58:43.807Z,32.08
2023-04-06T02:59:40.558Z,33.00
2023-04-06T03:00:38.675Z,33.83
2023-04-06T03:01:35.482Z,35.05
2023-04-06T03:02:32.254Z,33.45
2023-04-06T03:03:29.062Z,34.78
2023-04-06T03:04:26.588Z,36.65
2023-04-06T03:05:23.161Z,32.92
2023-04-06T03:06:19.780Z,35.63
2023-04-06T03:07:16.521Z,35.08
2023-04-06T03:08:13.114Z,33.65
2023-04-06T03:09:10.007Z,34.35
2023-04-06T03:10:07.105Z,32.33
2023-04-06T03:11:03.812Z,32.20
2023-04-06T03:12:01.008Z,32.92
2023-04-06T03:12:57.630Z,33.58
2023-04-06T03:13:54.287Z,29.08
2023-04-06T03:14:50.968Z,33.92
2023-04-06T03:15:47.636Z,32.65
2023-04-06T03:16:44.728Z,32.00
2023-04-06T03:17:41.422Z,32.08
2023-04-06T03:18:38.790Z,28.45
2023-04-06T03:19:35.477Z,30.63
2023-04-06T03:20:32.050Z,33.08
2023-04-06T03:21:31.641Z,31.90
2023-04-06T03:22:29.725Z,34.47
2023-04-06T03:23:26.392Z,29.77
2023-04-06T03:24:23.064Z,30.63
2023-04-06T03:25:19.661Z,29.45
2023-04-06T03:26:16.233Z,31.13
2023-04-06T03:27:13.019Z,31.83
2023-04-06T03:28:09.698Z,31.85
2023-04-06T03:29:06.528Z,36.10
2023-04-06T03:30:03.763Z,33.28
2023-04-06T03:31:00.716Z,33.10
2023-04-06T03:31:57.425Z,30.98
2023-04-06T03:32:54.140Z,34.55
2023-04-06T03:33:50.875Z,32.25
2023-04-06T03:34:47.415Z,32.30
2023-04-06T03:35:44.104Z,34.05
2023-04-06T03:36:40.824Z,33.20
2023-04-06T03:37:37.490Z,37.67
2023-04-06T03:38:34.091Z,36.13
2023-04-06T03:39:31.103Z,33.53
2023-04-06T03:40:27.741Z,32.13
2023-04-06T03:41:24.352Z,34.67
2023-04-06T03:42:21.000Z,34.30
2023-04-06T03:43:17.641Z,37.03
2023-04-06T03:44:14.263Z,34.78
2023-04-06T03:45:11.254Z,30.90
2023-04-06T03:46:07.927Z,34.35
2023-04-06T03:47:04.769Z,34.65
2023-04-06T03:48:01.466Z,35.90
2023-04-06T03:48:58.440Z,34.92
2023-04-06T03:49:55.207Z,34.88
2023-04-06T03:50:51.787Z,34.45
2023-04-06T03:51:48.638Z,39.35
2023-04-06T03:52:45.300Z,35.75
2023-04-06T03:53:41.864Z,37.58
2023-04-06T03:54:38.619Z,37.83
2023-04-06T03:55:35.423Z,34.88
2023-04-06T03:56:32.174Z,34.78
2023-04-06T03:57:28.773Z,35.35
2023-04-06T03:58:25.365Z,37.53
2023-04-06T03:59:22.157Z,32.28
2023-04-06T04:00:18.973Z,35.17
2023-04-06T04:01:16.081Z,33.90
2023-04-06T04:02:12.798Z,32.55
2023-04-06T04:03:09.516Z,33.05
2023-04-06T04:04:06.452Z,36.97
2023-04-06T04:05:03.501Z,37.80
2023-04-06T04:06:00.315Z,36.25
2023-04-06T04:06:56.930Z,35.75
2023-04-06T04:07:53.717Z,33.65
2023-04-06T04:08:50.738Z,39.10
2023-04-06T04:09:47.347Z,32.50
2023-04-06T04:10:43.945Z,35.88
2023-04-06T04:11:40.850Z,34.90
2023-04-06T04:12:37.536Z,43.95
2023-04-06T04:13:34.156Z,37.20
2023-04-06T04:14:30.889Z,33.38
2023-04-06T04:15:27.689Z,32.92
2023-04-06T04:16:24.409Z,37.63
2023-04-06T04:17:22.933Z,36.80
2023-04-06T04:18:19.999Z,38.45
2023-04-06T04:19:16.650Z,37.70
2023-04-06T04:20:14.344Z,39.40
2023-04-06T04:21:11.127Z,40.50
2023-04-06T04:22:07.793Z,38.65
2023-04-06T04:23:04.456Z,39.15
2023-04-06T04:24:01.155Z,35.90
2023-04-06T04:24:57.739Z,39.33
2023-04-06T04:25:54.397Z,40.22
2023-04-06T04:26:51.076Z,35.60
2023-04-06T04:27:47.670Z,37.95
2023-04-06T04:28:44.322Z,38.78
2023-04-06T04:29:41.121Z,38.92
2023-04-06T04:30:37.742Z,41.20
2023-04-06T04:31:34.422Z,38.95
2023-04-06T04:32:31.553Z,39.00
2023-04-06T04:33:28.253Z,38.67
2023-04-06T04:34:26.250Z,40.58
2023-04-06T04:35:22.928Z,35.13
2023-04-06T04:36:19.646Z,36.95
2023-04-06T04:37:16.306Z,42.15
2023-04-06T04:38:12.904Z,42.97
2023-04-06T04:39:09.809Z,38.58
2023-04-06T04:40:07.412Z,37.42
2023-04-06T04:41:03.990Z,36.95
2023-04-06T04:42:00.755Z,41.97
2023-04-06T04:42:57.386Z,41.13
2023-04-06T04:43:53.973Z,37.28
2023-04-06T04:44:50.618Z,37.30
2023-04-06T04:45:47.285Z,39.95
2023-04-06T04:46:43.941Z,38.00
2023-04-06T04:47:40.719Z,37.25
2023-04-06T04:48:37.573Z,36.83
2023-04-06T04:49:34.190Z,37.22
2023-04-06T04:50:30.897Z,39.40
2023-04-06T04:51:29.569Z,35.55
2023-04-06T04:52:26.259Z,39.28
2023-04-06T04:53:25.077Z,38.22
2023-04-06T04:54:22.007Z,39.00
2023-04-06T04:55:18.892Z,34.00
2023-04-06T04:56:15.920Z,37.88
2023-04-06T04:57:12.530Z,41.88
2023-04-06T04:58:12.119Z,34.97
2023-04-06T04:59:08.916Z,37.95
2023-04-06T05:00:06.788Z,40.50
2023-04-06T05:01:03.463Z,37.95
2023-04-06T05:02:00.335Z,35.17
2023-04-06T05:02:57.127Z,38.80
2023-04-06T05:03:53.952Z,32.92
2023-04-06T05:04:50.685Z,38.58
2023-04-06T05:05:47.285Z,37.78
2023-04-06T05:06:43.945Z,36.25
2023-04-06T05:07:40.652Z,37.08
2023-04-06T05:08:37.243Z,32.67
2023-04-06T05:09:33.937Z,36.30
2023-04-06T05:10:30.570Z,37.72
2023-04-06T05:11:27.474Z,34.33
2023-04-06T05:12:24.118Z,41.03
2023-04-06T05:13:21.286Z,37.28
2023-04-06T05:14:18.375Z,38.38
2023-04-06T05:15:15.202Z,35.15
2023-04-06T05:16:12.218Z,39.53
2023-04-06T05:17:09.353Z,34.80
2023-04-06T05:18:07.052Z,41.35
2023-04-06T05:19:03.794Z,35.85
2023-04-06T05:20:00.508Z,32.08
2023-04-06T05:20:57.144Z,33.03
2023-04-06T05:21:53.924Z,29.38
2023-04-06T05:22:50.562Z,33.13
2023-04-06T05:23:47.174Z,35.45
2023-04-06T05:24:44.232Z,36.42
2023-04-06T05:25:41.742Z,32.88
2023-04-06T05:26:38.492Z,35.08
2023-04-06T05:27:35.674Z,33.05
2023-04-06T05:28:33.045Z,33.15
2023-04-06T05:29:30.645Z,35.95
2023-04-06T05:30:27.306Z,35.63
2023-04-06T05:31:23.949Z,37.45
2023-04-06T05:32:23.154Z,35.28
2023-04-06T05:33:20.030Z,37.08
2023-04-06T05:34:16.857Z,36.08
2023-04-06T05:35:13.618Z,38.58
2023-04-06T05:36:11.635Z,38.70
2023-04-06T05:37:09.697Z,35.25
2023-04-06T05:38:10.665Z,39.40
2023-04-06T05:39:08.243Z,33.72
2023-04-06T05:40:05.704Z,35.75
2023-04-06T05:41:02.302Z,33.92
2023-04-06T05:41:58.845Z,37.13
2023-04-06T05:42:55.435Z,35.20
2023-04-06T05:43:52.050Z,30.60
2023-04-06T05:44:48.686Z,34.40
2023-04-06T05:45:46.757Z,33.70
2023-04-06T05:46:43.346Z,33.13
2023-04-06T05:47:40.057Z,35.53
2023-04-06T05:48:37.021Z,33.42
2023-04-06T05:49:33.920Z,32.92
2023-04-06T05:50:30.580Z,33.42
2023-04-06T05:51:28.298Z,31.98
2023-04-06T05:52:25.241Z,30.30
2023-04-06T05:53:27.339Z,35.22
2023-04-06T05:54:24.138Z,33.47
2023-04-06T05:55:20.804Z,31.70
2023-04-06T05:56:17.706Z,33.50
2023-04-06T05:57:14.340Z,33.78
2023-04-06T05:58:11.205Z,32.88
2023-04-06T05:59:08.421Z,35.05
2023-04-06T06:00:07.823Z,31.52
2023-04-06T06:01:05.793Z,32.13
2023-04-06T06:02:02.613Z,32.05
2023-04-06T06:02:59.325Z,31.35
2023-04-06T06:03:56.001Z,33.00
2023-04-06T06:04:52.752Z,32.47
2023-04-06T06:05:49.444Z,29.23
2023-04-06T06:06:46.108Z,31.42
2023-04-06T06:07:42.777Z,30.80
2023-04-06T06:08:39.450Z,36.97
2023-04-06T06:09:36.147Z,31.00
2023-04-06T06:10:32.819Z,29.55
2023-04-06T06:11:29.456Z,33.78
2023-04-06T06:12:26.132Z,36.30
2023-04-06T06:13:23.555Z,33.63
2023-04-06T06:14:21.048Z,35.30
2023-04-06T06:15:17.779Z,33.50
2023-04-06T06:16:14.410Z,33.47
2023-04-06T06:17:11.125Z,34.45
2023-04-06T06:18:07.826Z,32.13
2023-04-06T06:19:04.564Z,32.38
2023-04-06T06:20:01.260Z,34.38
2023-04-06T06:20:57.877Z,32.70
2023-04-06T06:21:54.538Z,34.00
2023-04-06T06:22:51.216Z,36.83
2023-04-06T06:23:49.556Z,35.08
2023-04-06T06:24:46.259Z,35.28
2023-04-06T06:25:42.823Z,33.13
2023-04-06T06:26:40.511Z,31.42
2023-04-06T06:27:37.595Z,32.53
2023-04-06T06:28:34.358Z,35.75
2023-04-06T06:29:31.089Z,33.97
2023-04-06T06:30:28.926Z,33.75
2023-04-06T06:31:25.765Z,36.30
2023-04-06T06:32:22.569Z,33.45
2023-04-06T06:33:19.353Z,34.35
2023-04-06T06:34:16.014Z,31.75
2023-04-06T06:35:12.626Z,28.88
2023-04-06T06:36:09.408Z,33.70
2023-04-06T06:37:07.156Z,31.88
2023-04-06T06:38:03.831Z,33.35
2023-04-06T06:39:01.670Z,32.13
2023-04-06T06:39:58.249Z,33.85
2023-04-06T06:40:54.917Z,30.48
2023-04-06T06:41:51.579Z,31.90
2023-04-06T06:42:48.213Z,31.25
2023-04-06T06:43:44.904Z,30.40
2023-04-06T06:44:41.559Z,31.20
2023-04-06T06:45:38.357Z,31.08
2023-04-06T06:46:34.996Z,30.98
2023-04-06T06:48:28.355Z,28.75
2023-04-06T06:49:25.002Z,27.67
2023-04-06T06:50:21.764Z,32.75
2023-04-06T06:51:18.440Z,30.73
2023-04-06T06:52:15.650Z,30.38
2023-04-06T06:53:12.782Z,29.13
2023-04-06T06:54:09.694Z,26.52
2023-04-06T06:55:06.823Z,30.90
2023-04-06T06:56:03.754Z,29.10
2023-04-06T06:57:01.426Z,31.30
2023-04-06T06:57:58.099Z,31.13
2023-04-06T06:58:54.773Z,32.35
2023-04-06T06:59:51.450Z,31.75
2023-04-06T07:00:48.134Z,30.02
2023-04-06T07:01:44.815Z,33.25
2023-04-06T07:02:41.742Z,33.78
2023-04-06T07:03:38.350Z,32.97
2023-04-06T07:04:35.091Z,32.20
2023-04-06T07:05:31.836Z,29.38
2023-04-06T07:06:28.513Z,35.22
2023-04-06T07:07:25.156Z,32.85
2023-04-06T07:08:23.074Z,33.60
2023-04-06T07:09:20.156Z,32.60
2023-04-06T07:10:16.863Z,34.10
2023-04-06T07:11:13.534Z,34.95
2023-04-06T07:12:10.340Z,32.50
2023-04-06T07:13:07.227Z,34.58
2023-04-06T07:14:03.912Z,33.97
2023-04-06T07:15:00.638Z,33.90
2023-04-06T07:15:57.251Z,37.65
2023-04-06T07:16:53.931Z,35.35
2023-04-06T07:17:50.795Z,37.10
2023-04-06T07:18:47.617Z,38.65
2023-04-06T07:19:44.413Z,35.88
2023-04-06T07:20:41.343Z,36.05
2023-04-06T07:21:38.085Z,34.60
2023-04-06T07:22:34.785Z,36.67
2023-04-06T07:23:31.388Z,32.97
2023-04-06T07:24:28.034Z,35.28
2023-04-06T07:25:26.068Z,34.15
2023-04-06T07:26:22.772Z,34.30
2023-04-06T07:27:19.921Z,37.00
2023-04-06T07:28:16.583Z,36.20
2023-04-06T07:29:13.803Z,35.25
2023-04-06T07:30:10.919Z,30.13
2023-04-06T07:31:07.631Z,34.88
2023-04-06T07:32:04.346Z,35.05
2023-04-06T07:33:01.452Z,32.47
2023-04-06T07:33:58.223Z,31.67
2023-04-06T07:34:54.834Z,33.47
2023-04-06T07:35:52.567Z,38.35
2023-04-06T07:36:49.292Z,34.03
2023-04-06T07:37:45.923Z,30.23
2023-04-06T07:38:42.578Z,34.38
2023-04-06T07:39:39.241Z,33.72
2023-04-06T07:40:35.945Z,31.70
2023-04-06T07:41:32.650Z,34.17
2023-04-06T07:42:29.319Z,32.75
2023-04-06T07:43:26.237Z,30.90
2023-04-06T07:44:22.925Z,35.75
2023-04-06T07:45:19.873Z,34.53
2023-04-06T07:46:16.652Z,29.65
2023-04-06T07:47:13.349Z,27.63
2023-04-06T07:48:11.002Z,31.25
2023-04-06T07:49:07.660Z,28.98
2023-04-06T07:50:04.755Z,31.80
2023-04-06T07:51:03.198Z,31.33
2023-04-06T07:51:59.810Z,32.13
2023-04-06T07:52:56.429Z,31.50
2023-04-06T07:53:53.217Z,30.73
2023-04-06T07:54:50.557Z,33.35
2023-04-06T07:55:47.378Z,33.15
2023-04-06T07:56:44.080Z,31.67
2023-04-06T07:57:40.789Z,28.65
2023-04-06T07:58:37.394Z,30.30
2023-04-06T07:59:34.123Z,27.00
2023-04-06T08:00:31.450Z,28.48
2023-04-06T08:01:29.223Z,29.20
2023-04-06T08:02:26.012Z,29.13
2023-04-06T08:03:28.654Z,29.17
2023-04-06T08:04:25.606Z,29.80
2023-04-06T08:05:22.368Z,28.55
2023-04-06T08:06:18.985Z,34.92
2023-04-06T08:07:15.621Z,30.92
2023-04-06T08:08:12.274Z,31.77
2023-04-06T08:09:09.066Z,26.70
2023-04-06T08:10:06.078Z,27.48
2023-04-06T08:11:03.758Z,32.92
2023-04-06T08:12:00.398Z,30.25
2023-04-06T08:12:57.025Z,29.88
2023-04-06T08:13:53.786Z,28.35
2023-04-06T08:14:50.504Z,30.55
2023-04-06T08:15:47.232Z,26.27
2023-04-06T08:16:44.011Z,29.10
2023-04-06T08:17:40.843Z,29.90
2023-04-06T08:18:37.575Z,27.80
2023-04-06T08:19:34.269Z,31.55
2023-04-06T08:20:30.930Z,26.17
2023-04-06T08:21:28.565Z,26.60
2023-04-06T08:22:25.216Z,29.92
2023-04-06T08:23:22.031Z,27.58
2023-04-06T08:24:18.693Z,28.50
2023-04-06T08:25:15.499Z,27.20
2023-04-06T08:26:12.193Z,26.15
2023-04-06T08:27:08.874Z,28.13
2023-04-06T08:28:05.804Z,25.65
2023-04-06T08:29:02.446Z,25.25
2023-04-06T08:29:59.185Z,29.00
2023-04-06T08:30:55.913Z,28.17
2023-04-06T08:31:52.502Z,29.52
2023-04-06T08:32:49.169Z,26.00
2023-04-06T08:33:45.986Z,26.35
2023-04-06T08:34:42.653Z,29.75
2023-04-06T08:35:39.327Z,26.92
2023-04-06T08:36:36.043Z,26.67
2023-04-06T08:37:32.741Z,26.17
2023-04-06T08:38:29.356Z,27.40
2023-04-06T08:39:28.186Z,30.83
2023-04-06T08:40:25.297Z,26.05
2023-04-06T08:41:22.349Z,27.67
2023-04-06T08:42:23.018Z,28.25
2023-04-06T08:43:23.548Z,23.67
2023-04-06T08:44:20.530Z,23.75
2023-04-06T08:45:18.849Z,25.30
2023-04-06T08:46:16.280Z,25.70
2023-04-06T08:47:13.798Z,27.38
2023-04-06T08:48:10.734Z,23.55
2023-04-06T08:49:08.948Z,24.20
2023-04-06T08:50:06.232Z,24.27
2023-04-06T08:51:03.613Z,26.15
2023-04-06T08:52:01.549Z,26.15
2023-04-06T08:52:58.190Z,23.42
2023-04-06T08:53:56.391Z,23.73
2023-04-06T08:54:53.022Z,22.85
2023-04-06T08:55:49.864Z,22.83
2023-04-06T08:56:47.660Z,24.98
2023-04-06T08:57:45.330Z,25.80
2023-04-06T08:58:42.746Z,23.92
2023-04-06T08:59:40.537Z,27.48
2023-04-06T09:00:40.561Z,27.67
2023-04-06T09:01:42.418Z,22.77
2023-04-06T09:02:46.405Z,22.48
2023-04-06T09:03:44.675Z,21.77
2023-04-06T09:04:41.848Z,22.70
2023-04-06T09:05:39.765Z,21.48
2023-04-06T09:06:37.947Z,23.80
2023-04-06T09:07:34.632Z,19.88
2023-04-06T09:08:31.480Z,24.67
2023-04-06T09:09:28.193Z,26.48
2023-04-06T09:10:28.267Z,24.80
2023-04-06T09:11:25.046Z,19.35
2023-04-06T09:12:29.002Z,24.92
2023-04-06T09:13:25.808Z,24.02
2023-04-06T09:14:38.991Z,23.50
2023-04-06T09:15:36.295Z,23.73
2023-04-06T09:16:41.522Z,24.92
2023-04-06T09:17:38.200Z,25.92
2023-04-06T09:18:35.249Z,22.23
2023-04-06T09:19:32.106Z,28.60
2023-04-06T09:20:31.502Z,25.65
2023-04-06T09:21:28.387Z,23.65
2023-04-06T09:22:29.384Z,24.98
2023-04-06T09:23:26.082Z,27.83
2023-04-06T09:24:27.224Z,23.98
2023-04-06T09:25:26.612Z,25.75
2023-04-06T09:26:23.854Z,24.50
2023-04-06T09:27:33.302Z,24.38
2023-04-06T09:28:30.084Z,19.55
2023-04-06T09:29:28.106Z,25.20
2023-04-06T09:30:26.017Z,23.15
2023-04-06T09:31:28.494Z,20.45
2023-04-06T09:33:24.804Z,23.13
2023-04-06T09:34:23.871Z,25.83
2023-04-06T09:35:21.658Z,22.77
2023-04-06T09:36:18.564Z,21.88
2023-04-06T09:37:19.750Z,23.60
2023-04-06T09:38:16.468Z,20.85
2023-04-06T09:39:14.098Z,24.20
2023-04-06T09:40:11.246Z,22.85
2023-04-06T09:41:07.969Z,25.08
2023-04-06T09:42:04.609Z,22.73
2023-04-06T09:43:03.389Z,24.10
2023-04-06T09:44:11.026Z,21.45
2023-04-06T09:45:08.588Z,24.48
2023-04-06T09:46:05.697Z,20.35
2023-04-06T09:47:06.313Z,22.38
2023-04-06T09:48:04.934Z,23.13
2023-04-06T09:49:03.527Z,24.55
2023-04-06T09:50:01.398Z,26.33
2023-04-06T09:51:04.106Z,24.00
2023-04-06T09:52:03.285Z,20.83
2023-04-06T09:53:01.023Z,21.88
2023-04-06T09:54:02.384Z,22.58
2023-04-06T09:55:03.055Z,21.52
2023-04-06T09:56:03.931Z,27.17
2023-04-06T09:57:27.438Z,18.17
2023-04-06T09:58:27.445Z,23.00
2023-04-06T09:59:24.161Z,21.25
2023-04-06T10:00:23.485Z,22.05
2023-04-06T10:01:21.804Z,23.60
2023-04-06T10:02:49.195Z,20.15
2023-04-06T10:04:22.505Z,20.75
2023-04-06T10:05:31.275Z,22.42
2023-04-06T10:06:34.341Z,20.65
2023-04-06T10:07:32.389Z,21.60
2023-04-06T10:08:32.480Z,22.88
2023-04-06T10:09:36.656Z,24.40
2023-04-06T10:10:33.627Z,24.42
2023-04-06T10:11:30.665Z,19.42
2023-04-06T10:12:27.355Z,21.20
2023-04-06T10:13:25.946Z,17.77
2023-04-06T10:14:22.673Z,22.92
2023-04-06T10:15:21.913Z,20.65
2023-04-06T10:16:19.760Z,20.00
2023-04-06T10:17:16.504Z,19.20
2023-04-06T10:18:13.449Z,19.35
2023-04-06T10:19:26.004Z,18.95
2023-04-06T10:20:28.788Z,15.30
2023-04-06T10:21:28.527Z,20.27
2023-04-06T10:22:37.643Z,27.25
2023-04-06T10:23:38.027Z,16.27
2023-04-06T10:24:34.704Z,19.75
2023-04-06T10:25:32.936Z,25.42
2023-04-06T10:26:29.702Z,17.85
2023-04-06T10:27:30.736Z,21.17
2023-04-06T10:28:32.842Z,19.15
2023-04-06T10:29:29.742Z,21.00
2023-04-06T10:30:27.161Z,18.67
2023-04-06T10:31:28.737Z,19.58
2023-04-06T10:32:37.279Z,15.83
2023-04-06T10:33:34.348Z,19.02
2023-04-06T10:34:36.300Z,18.48
2023-04-06T10:35:41.734Z,17.13
2023-04-06T10:36:38.908Z,19.10
2023-04-06T10:38:01.465Z,15.98
2023-04-06T10:39:03.658Z,19.77
2023-04-06T10:40:00.365Z,18.08
2023-04-06T10:41:08.225Z,21.65
2023-04-06T10:42:07.878Z,19.88
2023-04-06T10:43:12.782Z,19.88
2023-04-06T10:44:18.845Z,20.17
2023-04-06T10:45:28.855Z,17.90
2023-04-06T10:46:31.542Z,17.73
2023-04-06T10:47:28.286Z,23.88
2023-04-06T10:48:25.368Z,20.88
2023-04-06T10:49:22.291Z,19.95
2023-04-06T10:50:19.198Z,19.02
2023-04-06T10:51:17.897Z,19.55
2023-04-06T10:52:14.650Z,18.58
2023-04-06T10:53:11.378Z,17.27
2023-04-06T10:54:08.806Z,16.25
2023-04-06T10:55:07.112Z,15.52
2023-04-06T10:56:05.125Z,16.00
2023-04-06T10:57:02.065Z,22.30
2023-04-06T10:57:58.702Z,17.67
2023-04-06T10:58:58.936Z,20.33
2023-04-06T10:59:55.680Z,14.75
2023-04-06T11:00:52.764Z,15.65
2023-04-06T11:01:49.926Z,19.85
2023-04-06T11:02:47.313Z,18.33
2023-04-06T11:03:48.809Z,17.25
2023-04-06T11:04:55.303Z,14.70
2023-04-06T11:05:52.615Z,16.15
2023-04-06T11:06:50.458Z,20.13
2023-04-06T11:07:47.143Z,15.65
2023-04-06T11:08:43.891Z,19.27
2023-04-06T11:09:40.678Z,16.25
2023-04-06T11:10:37.377Z,17.88
2023-04-06T11:11:34.049Z,18.25
2023-04-06T11:12:31.943Z,16.40
2023-04-06T11:13:41.936Z,15.23
2023-04-06T11:14:39.880Z,14.07
2023-04-06T11:15:38.222Z,12.80
2023-04-06T11:16:36.237Z,15.23
2023-04-06T11:17:35.003Z,15.57
2023-04-06T11:18:32.762Z,14.75
2023-04-06T11:19:29.551Z,15.50
2023-04-06T11:20:26.290Z,13.32
2023-04-06T11:21:47.717Z,13.63
2023-04-06T11:22:52.770Z,14.55
2023-04-06T11:23:49.387Z,15.63
2023-04-06T11:24:46.161Z,12.98
2023-04-06T11:25:52.129Z,17.10
2023-04-06T11:26:50.044Z,16.30
2023-04-06T11:27:48.619Z,13.05
2023-04-06T11:28:45.503Z,12.25
2023-04-06T11:29:42.255Z,13.80
2023-04-06T11:30:39.297Z,12.07
2023-04-06T11:31:43.816Z,12.32
2023-04-06T11:32:45.271Z,13.50
2023-04-06T11:33:42.056Z,14.67
2023-04-06T11:34:40.645Z,15.32
2023-04-06T11:35:38.477Z,14.35
2023-04-06T11:36:36.928Z,15.00
2023-04-06T11:37:34.038Z,15.52
2023-04-06T11:38:31.894Z,18.33
2023-04-06T11:39:29.918Z,24.02
2023-04-06T11:40:28.966Z,13.85
2023-04-06T11:41:27.650Z,13.88
2023-04-06T11:42:29.254Z,16.83
2023-04-06T11:43:30.393Z,20.17
2023-04-06T11:44:41.271Z,15.50
2023-04-06T11:45:44.078Z,15.38
2023-04-06T11:46:41.007Z,14.15
2023-04-06T11:47:43.198Z,14.60
2023-04-06T11:48:46.465Z,11.07
2023-04-06T11:50:40.770Z,14.43
2023-04-06T11:51:38.350Z,17.85
2023-04-06T11:52:35.248Z,16.33
2023-04-06T11:53:32.053Z,16.13
2023-04-06T11:54:36.262Z,15.00
2023-04-06T11:55:39.177Z,16.67
2023-04-06T11:56:35.892Z,14.25
2023-04-06T11:57:32.560Z,17.05
2023-04-06T11:58:30.886Z,14.85
2023-04-06T11:59:28.299Z,15.05
2023-04-06T12:00:25.041Z,16.83
2023-04-06T12:01:21.660Z,25.17
2023-04-06T12:02:19.049Z,12.23
2023-04-06T12:03:16.038Z,13.70
2023-04-06T12:04:13.024Z,13.18
2023-04-06T12:05:10.435Z,14.68
2023-04-06T12:06:07.136Z,16.90
2023-04-06T12:07:04.065Z,14.55
2023-04-06T12:08:02.710Z,15.05
2023-04-06T12:09:00.360Z,15.13
2023-04-06T12:09:57.212Z,19.80
2023-04-06T12:10:53.878Z,18.17
2023-04-06T12:11:50.928Z,19.33
2023-04-06T12:12:47.873Z,19.50
2023-04-06T12:13:44.520Z,13.63
2023-04-06T12:14:41.374Z,13.73
2023-04-06T12:15:38.274Z,17.67
2023-04-06T12:16:35.986Z,14.73
2023-04-06T12:17:32.796Z,16.00
2023-04-06T12:18:31.002Z,20.88
2023-04-06T12:19:27.909Z,14.60
2023-04-06T12:20:26.516Z,15.68
2023-04-06T12:21:24.265Z,20.38
2023-04-06T12:22:20.978Z,15.50
2023-04-06T12:23:17.655Z,17.63
2023-04-06T12:24:14.297Z,15.27
2023-04-06T12:25:11.409Z,13.23
2023-04-06T12:26:13.191Z,15.75